Forside
METAR-TAF:

METAR-TAF

Lufthavne :

Brooks Field

Marshall, Michigan, USA

Breddekreds: 42-15-04N, længdekreds: 084-57-20W, højde: 287 m

Aktuelle vejr

Denne rapport blev lavet for 9 minutter siden, kl. 12:35 UTC
Vind 4 kt fra nordnordøst
Temperatur 3°C
Fugtighed 81%
Tryk 1017 hPa
Sigt: 16.1 km
Overskyet i en højde af 900 ft

METAR: KRMY 311235Z AUTO 03004KT 10SM OVC009 03/00 A3003 RMK AO2 T00260002

Tid: 08:44 (12:44 UTC)


TAF: fraværende

Vejrobservationer og prognoser fra mere end 4000 lufthavne (METAR og TAF).

De gule og røde prikker repræsenterer de meteorologiske stationer.

Flyt musen over at se navnet på stationen.

Så klik over at se vejr observationer og prognoser.

At skifte det kort: Klik på de grønne knapper med et sort kors for at zoome ind; på den grønne knap med en bindestreg for at zoome ud; eller på de grønne pile for tilstødende kort.


METAR-TAF: